createdAt,value
2023-01-06T00:00:03.646Z,57.60
2023-01-06T00:01:03.445Z,50.80
2023-01-06T00:02:04.223Z,56.10
2023-01-06T00:03:03.495Z,55.50
2023-01-06T00:04:03.674Z,45.80
2023-01-06T00:05:03.455Z,58.00
2023-01-06T00:06:03.570Z,53.80
2023-01-06T00:07:03.408Z,59.50
2023-01-06T00:08:03.413Z,57.60
2023-01-06T00:09:03.429Z,57.70
2023-01-06T00:10:03.405Z,57.80
2023-01-06T00:11:03.774Z,59.00
2023-01-06T00:12:03.549Z,64.50
2023-01-06T00:13:03.370Z,56.50
2023-01-06T00:14:03.386Z,58.90
2023-01-06T00:15:03.496Z,65.10
2023-01-06T00:16:03.350Z,55.30
2023-01-06T00:17:03.354Z,62.20
2023-01-06T00:18:03.429Z,68.40
2023-01-06T00:19:37.224Z,69.00
2023-01-06T00:20:03.368Z,61.20
2023-01-06T00:21:03.347Z,59.40
2023-01-06T00:22:03.316Z,55.80
2023-01-06T00:23:03.324Z,58.60
2023-01-06T00:24:03.371Z,58.20
2023-01-06T00:25:03.292Z,60.40
2023-01-06T00:26:03.331Z,54.60
2023-01-06T00:27:03.344Z,63.70
2023-01-06T00:28:03.302Z,54.80
2023-01-06T00:29:03.267Z,57.00
2023-01-06T00:30:03.298Z,61.40
2023-01-06T00:31:03.341Z,52.10
2023-01-06T00:32:03.308Z,56.20
2023-01-06T00:33:03.262Z,58.70
2023-01-06T00:34:03.215Z,62.10
2023-01-06T00:35:03.218Z,58.10
2023-01-06T00:36:03.190Z,52.60
2023-01-06T00:37:03.181Z,55.70
2023-01-06T00:38:03.211Z,56.50
2023-01-06T00:39:03.273Z,54.00
2023-01-06T00:40:03.332Z,59.10
2023-01-06T00:41:03.221Z,53.00
2023-01-06T00:42:03.153Z,61.20
2023-01-06T00:43:03.128Z,46.80
2023-01-06T00:44:03.160Z,50.00
2023-01-06T00:45:03.135Z,49.90
2023-01-06T00:46:03.201Z,53.90
2023-01-06T00:47:03.196Z,43.30
2023-01-06T00:48:03.123Z,44.90
2023-01-06T00:49:05.581Z,47.80
2023-01-06T00:50:04.095Z,49.10
2023-01-06T00:51:03.081Z,46.80
2023-01-06T00:52:03.085Z,49.20
2023-01-06T00:53:03.102Z,49.30
2023-01-06T00:54:03.049Z,51.80
2023-01-06T00:55:03.063Z,49.60
2023-01-06T00:56:03.041Z,47.30
2023-01-06T00:57:03.044Z,44.90
2023-01-06T00:58:03.034Z,51.40
2023-01-06T00:59:03.025Z,45.10
2023-01-06T01:00:03.009Z,50.30
2023-01-06T01:01:02.993Z,43.10
2023-01-06T01:02:03.178Z,52.00
2023-01-06T01:03:03.115Z,52.20
2023-01-06T01:04:02.973Z,40.60
2023-01-06T01:05:02.979Z,43.50
2023-01-06T01:06:02.998Z,50.10
2023-01-06T01:07:02.956Z,48.70
2023-01-06T01:08:02.929Z,48.90
2023-01-06T01:09:02.918Z,45.70
2023-01-06T01:10:02.947Z,39.80
2023-01-06T01:11:03.351Z,37.60
2023-01-06T01:12:03.949Z,36.30
2023-01-06T01:13:02.902Z,39.50
2023-01-06T01:14:02.891Z,40.10
2023-01-06T01:15:02.888Z,39.90
2023-01-06T01:16:02.970Z,42.20
2023-01-06T01:17:02.930Z,37.70
2023-01-06T01:18:02.865Z,42.50
2023-01-06T01:19:02.946Z,44.70
2023-01-06T01:20:02.850Z,42.10
2023-01-06T01:21:02.857Z,37.20
2023-01-06T01:22:02.836Z,36.40
2023-01-06T01:23:02.849Z,36.80
2023-01-06T01:24:02.835Z,34.90
2023-01-06T01:25:02.799Z,34.50
2023-01-06T01:26:02.803Z,43.00
2023-01-06T01:27:02.788Z,44.90
2023-01-06T01:28:02.797Z,44.00
2023-01-06T01:29:02.836Z,39.50
2023-01-06T01:30:02.803Z,37.70
2023-01-06T01:31:02.808Z,48.10
2023-01-06T01:32:02.767Z,40.20
2023-01-06T01:33:02.833Z,37.10
2023-01-06T01:34:02.761Z,34.70
2023-01-06T01:35:02.805Z,33.10
2023-01-06T01:36:02.729Z,32.70
2023-01-06T01:37:02.695Z,32.30
2023-01-06T01:38:02.719Z,33.70
2023-01-06T01:39:02.755Z,31.80
2023-01-06T01:40:02.703Z,33.20
2023-01-06T01:41:02.687Z,28.30
2023-01-06T01:42:02.683Z,30.80
2023-01-06T01:43:02.678Z,28.00
2023-01-06T01:44:02.679Z,33.20
2023-01-06T01:45:02.768Z,30.80
2023-01-06T01:46:02.725Z,32.30
2023-01-06T01:47:02.646Z,28.50
2023-01-06T01:48:02.661Z,28.60
2023-01-06T01:49:02.665Z,25.90
2023-01-06T01:50:02.746Z,25.90
2023-01-06T01:51:02.708Z,28.20
2023-01-06T01:52:02.605Z,28.40
2023-01-06T01:53:02.592Z,32.80
2023-01-06T01:54:02.609Z,32.30
2023-01-06T01:55:02.603Z,27.90
2023-01-06T01:56:02.554Z,27.70
2023-01-06T01:57:02.577Z,31.40
2023-01-06T01:58:02.571Z,29.40
2023-01-06T01:59:02.543Z,29.00
2023-01-06T02:00:02.554Z,25.50
2023-01-06T02:01:02.561Z,24.20
2023-01-06T02:02:02.656Z,26.40
2023-01-06T02:03:02.549Z,29.20
2023-01-06T02:04:02.522Z,25.50
2023-01-06T02:05:02.536Z,28.90
2023-01-06T02:06:02.549Z,25.70
2023-01-06T02:07:02.519Z,26.80
2023-01-06T02:08:02.497Z,27.90
2023-01-06T02:09:02.468Z,28.90
2023-01-06T02:10:02.480Z,25.10
2023-01-06T02:11:02.463Z,26.80
2023-01-06T02:12:02.565Z,24.40
2023-01-06T02:13:02.495Z,28.20
2023-01-06T02:14:02.466Z,26.10
2023-01-06T02:15:02.415Z,28.00
2023-01-06T02:16:02.441Z,25.60
2023-01-06T02:17:02.424Z,25.80
2023-01-06T02:18:02.497Z,24.40
2023-01-06T02:19:34.774Z,24.80
2023-01-06T02:20:34.315Z,24.90
2023-01-06T02:21:02.388Z,22.70
2023-01-06T02:22:02.461Z,23.60
2023-01-06T02:23:02.454Z,24.60
2023-01-06T02:24:02.361Z,23.90
2023-01-06T02:25:02.377Z,24.20
2023-01-06T02:26:02.350Z,23.50
2023-01-06T02:27:02.332Z,22.60
2023-01-06T02:28:34.262Z,22.30
2023-01-06T02:29:02.416Z,24.00
2023-01-06T02:30:02.427Z,24.00
2023-01-06T02:31:02.361Z,23.30
2023-01-06T02:32:02.278Z,27.20
2023-01-06T02:33:02.298Z,24.10
2023-01-06T02:34:02.296Z,25.80
2023-01-06T02:35:02.296Z,21.70
2023-01-06T02:36:02.258Z,25.40
2023-01-06T02:37:02.287Z,20.90
2023-01-06T02:38:02.219Z,25.60
2023-01-06T02:39:02.323Z,24.00
2023-01-06T02:40:03.195Z,24.10
2023-01-06T02:41:02.269Z,27.90
2023-01-06T02:42:02.755Z,24.50
2023-01-06T02:43:34.111Z,26.70
2023-01-06T02:44:02.274Z,27.30
2023-01-06T02:45:02.342Z,29.40
2023-01-06T02:46:02.292Z,27.80
2023-01-06T02:47:02.196Z,29.80
2023-01-06T02:48:02.189Z,27.30
2023-01-06T02:49:02.271Z,33.70
2023-01-06T02:50:02.186Z,26.90
2023-01-06T02:51:02.148Z,27.60
2023-01-06T02:52:02.168Z,32.10
2023-01-06T02:53:02.100Z,26.80
2023-01-06T02:54:02.142Z,32.50
2023-01-06T02:55:02.191Z,28.70
2023-01-06T02:56:02.105Z,30.90
2023-01-06T02:57:02.113Z,29.30
2023-01-06T02:58:02.107Z,32.00
2023-01-06T02:59:02.083Z,27.90
2023-01-06T03:00:02.050Z,32.50
2023-01-06T03:01:02.071Z,33.10
2023-01-06T03:02:02.175Z,31.70
2023-01-06T03:03:02.084Z,33.30
2023-01-06T03:04:02.046Z,33.10
2023-01-06T03:05:02.101Z,28.80
2023-01-06T03:06:02.124Z,31.00
2023-01-06T03:07:02.055Z,32.00
2023-01-06T03:08:02.027Z,32.20
2023-01-06T03:09:01.993Z,34.00
2023-01-06T03:10:01.993Z,36.50
2023-01-06T03:11:02.119Z,35.50
2023-01-06T03:12:01.984Z,37.40
2023-01-06T03:13:01.968Z,34.80
2023-01-06T03:14:01.980Z,35.90
2023-01-06T03:15:01.966Z,35.60
2023-01-06T03:16:01.999Z,38.20
2023-01-06T03:17:01.953Z,36.90
2023-01-06T03:18:01.950Z,37.00
2023-01-06T03:19:01.925Z,35.50
2023-01-06T03:20:01.967Z,41.70
2023-01-06T03:21:01.904Z,34.10
2023-01-06T03:22:01.904Z,36.60
2023-01-06T03:23:01.902Z,35.00
2023-01-06T03:24:01.908Z,38.90
2023-01-06T03:25:34.269Z,34.30
2023-01-06T03:26:01.844Z,38.90
2023-01-06T03:27:02.941Z,38.50
2023-01-06T03:28:01.926Z,33.70
2023-01-06T03:29:01.909Z,33.00
2023-01-06T03:30:01.847Z,31.80
2023-01-06T03:31:01.889Z,30.90
2023-01-06T03:32:01.842Z,31.20
2023-01-06T03:33:01.843Z,29.20
2023-01-06T03:34:01.811Z,20.00
2023-01-06T03:35:01.804Z,22.50
2023-01-06T03:36:01.789Z,22.20
2023-01-06T03:37:01.796Z,19.90
2023-01-06T03:38:01.784Z,19.70
2023-01-06T03:39:01.768Z,20.90
2023-01-06T03:40:01.778Z,20.30
2023-01-06T03:41:01.729Z,20.10
2023-01-06T03:42:01.775Z,23.10
2023-01-06T03:43:01.803Z,22.80
2023-01-06T03:44:01.738Z,19.40
2023-01-06T03:45:01.733Z,25.10
2023-01-06T03:46:01.727Z,24.10
2023-01-06T03:47:01.711Z,26.10
2023-01-06T04:03:15.587Z,18.20
2023-01-06T04:04:15.586Z,24.70
2023-01-06T04:05:22.628Z,22.20
2023-01-06T04:06:15.558Z,24.90
2023-01-06T04:07:15.554Z,21.30
2023-01-06T04:08:15.569Z,19.70
2023-01-06T04:09:15.530Z,20.10
2023-01-06T04:10:15.558Z,16.30
2023-01-06T04:11:15.515Z,17.80
2023-01-06T04:12:15.508Z,16.20
2023-01-06T04:13:15.533Z,15.40
2023-01-06T04:14:15.565Z,14.80
2023-01-06T04:15:15.490Z,13.10
2023-01-06T04:16:15.534Z,14.20
2023-01-06T04:17:15.493Z,13.90
2023-01-06T04:18:15.495Z,15.20
2023-01-06T04:19:15.558Z,13.50
2023-01-06T04:20:15.484Z,11.20
2023-01-06T04:21:15.446Z,11.80
2023-01-06T04:22:16.617Z,13.90
2023-01-06T04:23:16.589Z,12.70
2023-01-06T04:24:16.565Z,15.70
2023-01-06T04:25:16.564Z,15.80
2023-01-06T04:26:16.544Z,16.60
2023-01-06T04:27:16.551Z,15.00
2023-01-06T04:28:16.540Z,16.30
2023-01-06T04:29:16.612Z,14.50
2023-01-06T04:30:16.520Z,15.20
2023-01-06T04:31:16.581Z,14.80
2023-01-06T04:32:16.508Z,17.90
2023-01-06T04:33:16.487Z,15.10
2023-01-06T04:34:17.508Z,18.10
2023-01-06T04:35:16.544Z,16.00
2023-01-06T04:36:16.508Z,14.80
2023-01-06T04:37:16.458Z,14.80
2023-01-06T04:38:16.490Z,14.60
2023-01-06T04:39:16.455Z,14.10
2023-01-06T04:40:16.476Z,15.80
2023-01-06T04:41:17.261Z,14.60
2023-01-06T04:42:16.431Z,13.50
2023-01-06T04:43:16.460Z,13.70
2023-01-06T04:44:16.460Z,14.70
2023-01-06T04:45:16.426Z,13.30
2023-01-06T04:46:16.889Z,12.20
2023-01-06T04:47:16.384Z,12.80
2023-01-06T04:48:16.376Z,12.20
2023-01-06T04:49:16.370Z,13.10
2023-01-06T04:50:16.375Z,8.10
2023-01-06T04:51:16.521Z,7.10
2023-01-06T04:52:16.360Z,10.10
2023-01-06T04:53:16.332Z,7.30
2023-01-06T04:54:16.341Z,6.00
2023-01-06T04:55:17.361Z,2.70
2023-01-06T04:56:16.316Z,5.50
2023-01-06T04:57:16.337Z,2.70
2023-01-06T04:58:16.294Z,2.60
2023-01-06T04:59:16.291Z,2.10
2023-01-06T05:00:16.349Z,4.20
2023-01-06T05:01:16.375Z,2.20
2023-01-06T05:02:16.343Z,3.70
2023-01-06T05:03:16.285Z,2.50
2023-01-06T05:04:16.308Z,2.50
2023-01-06T05:05:16.348Z,1.50
2023-01-06T05:06:16.234Z,1.80
2023-01-06T05:07:16.316Z,3.10
2023-01-06T05:08:17.245Z,1.70
2023-01-06T05:09:16.227Z,2.00
2023-01-06T05:10:16.221Z,2.80
2023-01-06T05:11:16.223Z,1.50
2023-01-06T05:12:16.171Z,1.80
2023-01-06T05:13:16.189Z,1.50
2023-01-06T05:14:48.115Z,2.80
2023-01-06T05:15:16.150Z,1.80
2023-01-06T05:16:17.198Z,3.30
2023-01-06T05:17:16.210Z,2.10
2023-01-06T05:18:16.220Z,1.10
2023-01-06T05:19:16.164Z,1.80
2023-01-06T05:20:16.150Z,1.10
2023-01-06T05:21:16.145Z,1.20
2023-01-06T05:22:16.144Z,1.50
2023-01-06T05:23:16.149Z,1.30
2023-01-06T05:24:16.159Z,1.10
2023-01-06T05:25:16.094Z,1.60
2023-01-06T05:26:16.099Z,1.80
2023-01-06T05:27:16.113Z,0.90
2023-01-06T05:28:16.078Z,1.20
2023-01-06T05:29:16.069Z,1.00
2023-01-06T05:30:16.055Z,1.20
2023-01-06T05:31:16.130Z,0.70
2023-01-06T05:32:16.087Z,1.00
2023-01-06T05:33:16.040Z,0.80
2023-01-06T05:34:16.052Z,1.80
2023-01-06T05:35:16.023Z,1.00
2023-01-06T05:36:16.008Z,1.00
2023-01-06T05:37:16.122Z,1.00
2023-01-06T05:38:16.076Z,0.80
2023-01-06T05:39:16.072Z,0.90
2023-01-06T05:40:15.976Z,1.10
2023-01-06T05:41:15.977Z,1.90
2023-01-06T05:42:15.991Z,0.70
2023-01-06T05:43:16.116Z,1.30
2023-01-06T05:44:16.015Z,1.10
2023-01-06T05:45:15.955Z,0.60
2023-01-06T05:46:15.973Z,1.60
2023-01-06T05:47:15.955Z,0.90
2023-01-06T05:48:15.916Z,1.30
2023-01-06T05:49:15.935Z,1.70
2023-01-06T05:50:15.938Z,3.30
2023-01-06T05:51:16.944Z,1.40
2023-01-06T05:52:15.917Z,1.80
2023-01-06T05:53:15.925Z,0.80
2023-01-06T05:54:16.777Z,0.90
2023-01-06T05:55:15.862Z,0.90
2023-01-06T05:56:48.802Z,1.10
2023-01-06T05:57:15.882Z,1.40
2023-01-06T05:58:15.850Z,1.30
2023-01-06T05:59:16.895Z,2.00
2023-01-06T06:00:15.831Z,1.30
2023-01-06T06:01:16.660Z,1.00
2023-01-06T06:02:16.850Z,1.00
2023-01-06T06:03:15.986Z,2.80
2023-01-06T06:04:15.853Z,1.30
2023-01-06T06:05:15.800Z,1.30
2023-01-06T06:07:13.675Z,2.20
2023-01-06T06:08:13.677Z,1.60
2023-01-06T06:09:13.712Z,1.20
2023-01-06T06:10:13.664Z,0.60
2023-01-06T06:11:13.817Z,0.60
2023-01-06T06:12:14.827Z,0.60
2023-01-06T06:13:14.912Z,2.10
2023-01-06T06:14:17.156Z,0.90
2023-01-06T06:15:14.874Z,1.00
2023-01-06T06:16:14.864Z,1.40
2023-01-06T06:17:14.778Z,1.60
2023-01-06T06:18:14.753Z,1.10
2023-01-06T06:19:14.788Z,1.60
2023-01-06T06:20:14.742Z,0.80
2023-01-06T06:21:14.760Z,0.90
2023-01-06T06:22:14.717Z,2.10
2023-01-06T06:23:14.715Z,2.50
2023-01-06T06:24:14.752Z,1.70
2023-01-06T06:25:14.692Z,2.90
2023-01-06T06:26:14.707Z,1.60
2023-01-06T06:27:14.757Z,1.70
2023-01-06T06:28:14.688Z,1.40
2023-01-06T06:29:14.664Z,2.00
2023-01-06T06:30:14.661Z,1.40
2023-01-06T06:31:14.694Z,1.10
2023-01-06T06:32:14.647Z,0.80
2023-01-06T06:33:14.628Z,0.80
2023-01-06T06:34:14.618Z,3.30
2023-01-06T06:35:14.642Z,1.40
2023-01-06T06:36:46.548Z,2.70
2023-01-06T06:37:14.616Z,1.70
2023-01-06T06:38:14.680Z,0.90
2023-01-06T06:39:15.603Z,0.80
2023-01-06T06:40:14.597Z,1.50
2023-01-06T06:41:14.583Z,1.50
2023-01-06T06:42:14.731Z,0.90
2023-01-06T06:43:14.632Z,1.00
2023-01-06T06:44:14.546Z,1.50
2023-01-06T06:45:14.547Z,1.20
2023-01-06T06:46:14.530Z,0.90
2023-01-06T06:47:14.573Z,2.10
2023-01-06T06:48:14.520Z,0.50
2023-01-06T06:49:14.512Z,1.00
2023-01-06T06:50:14.507Z,3.60
2023-01-06T06:51:14.527Z,2.40
2023-01-06T06:52:14.529Z,1.50
2023-01-06T06:53:14.475Z,1.60
2023-01-06T06:54:14.512Z,3.00
2023-01-06T06:55:14.462Z,1.50
2023-01-06T06:56:14.482Z,2.90
2023-01-06T06:57:14.480Z,3.20
2023-01-06T06:58:15.232Z,4.80
2023-01-06T06:59:14.599Z,1.80
2023-01-06T07:00:14.484Z,2.60
2023-01-06T07:01:14.611Z,5.50
2023-01-06T07:02:14.544Z,1.30
2023-01-06T07:03:14.401Z,2.50
2023-01-06T07:04:14.518Z,1.30
2023-01-06T07:05:14.404Z,2.30
2023-01-06T07:06:14.384Z,2.40
2023-01-06T07:07:14.385Z,1.10
2023-01-06T07:08:15.154Z,0.90
2023-01-06T07:09:14.384Z,2.30
2023-01-06T07:10:14.362Z,1.30
2023-01-06T07:11:14.360Z,2.80
2023-01-06T07:12:14.352Z,3.60
2023-01-06T07:13:14.360Z,1.10
2023-01-06T07:14:14.360Z,1.60
2023-01-06T07:15:46.359Z,0.80
2023-01-06T07:16:14.385Z,1.20
2023-01-06T07:17:14.355Z,2.20
2023-01-06T07:18:14.315Z,2.20
2023-01-06T07:19:14.367Z,3.90
2023-01-06T07:20:14.318Z,2.50
2023-01-06T07:21:14.287Z,2.30
2023-01-06T07:22:14.293Z,0.70
2023-01-06T07:23:14.354Z,0.80
2023-01-06T07:24:14.244Z,1.90
2023-01-06T07:25:14.252Z,0.80
2023-01-06T07:26:14.246Z,1.30
2023-01-06T07:27:14.233Z,2.00
2023-01-06T07:28:14.227Z,1.70
2023-01-06T07:29:14.202Z,1.40
2023-01-06T07:30:14.250Z,2.50
2023-01-06T07:31:14.398Z,2.30
2023-01-06T07:32:14.186Z,3.10
2023-01-06T07:33:14.213Z,3.30
2023-01-06T07:34:14.212Z,2.90
2023-01-06T07:35:14.167Z,1.50
2023-01-06T07:36:14.157Z,1.20
2023-01-06T07:37:14.155Z,1.80
2023-01-06T07:38:14.207Z,2.80
2023-01-06T07:39:14.162Z,2.60
2023-01-06T07:40:14.164Z,5.50
2023-01-06T07:41:14.118Z,2.20
2023-01-06T07:42:14.112Z,1.40
2023-01-06T07:43:14.112Z,2.60
2023-01-06T07:44:14.690Z,3.00
2023-01-06T07:45:14.116Z,2.90
2023-01-06T07:46:14.137Z,2.60
2023-01-06T07:47:14.063Z,3.70
2023-01-06T07:48:14.073Z,1.60
2023-01-06T07:49:14.089Z,3.40
2023-01-06T07:50:14.059Z,4.20
2023-01-06T07:51:14.030Z,1.30
2023-01-06T07:52:14.035Z,3.00
2023-01-06T07:53:14.058Z,2.90
2023-01-06T07:54:14.017Z,3.20
2023-01-06T07:55:14.024Z,3.90
2023-01-06T07:56:14.021Z,3.10
2023-01-06T07:57:13.984Z,2.60
2023-01-06T07:58:14.009Z,4.80
2023-01-06T07:59:13.967Z,3.40
2023-01-06T08:00:14.014Z,4.70
2023-01-06T08:01:14.749Z,1.80
2023-01-06T08:02:14.074Z,3.70
2023-01-06T08:03:14.982Z,5.90
2023-01-06T08:04:13.938Z,2.40
2023-01-06T08:05:13.943Z,4.00
2023-01-06T08:06:14.015Z,2.00
2023-01-06T08:07:13.917Z,2.70
2023-01-06T08:08:13.911Z,2.90
2023-01-06T08:09:13.929Z,1.40
2023-01-06T08:10:13.935Z,1.80
2023-01-06T08:11:14.059Z,1.30
2023-01-06T08:12:13.874Z,0.80
2023-01-06T08:13:13.866Z,1.60
2023-01-06T08:14:14.655Z,1.70
2023-01-06T08:15:13.851Z,2.00
2023-01-06T08:16:13.982Z,3.80
2023-01-06T08:17:13.844Z,3.00
2023-01-06T08:18:13.834Z,2.00
2023-01-06T08:19:13.906Z,1.60
2023-01-06T08:20:45.770Z,1.40
2023-01-06T08:21:13.842Z,1.20
2023-01-06T08:22:13.801Z,4.50
2023-01-06T08:23:13.903Z,2.40
2023-01-06T08:24:13.784Z,2.20
2023-01-06T08:25:13.778Z,6.00
2023-01-06T08:26:13.826Z,1.80
2023-01-06T08:27:13.778Z,3.10
2023-01-06T08:28:13.777Z,3.30
2023-01-06T08:29:13.762Z,3.00
2023-01-06T08:30:13.881Z,4.30
2023-01-06T08:31:13.823Z,2.60
2023-01-06T08:32:13.743Z,1.70
2023-01-06T08:33:13.737Z,4.30
2023-01-06T08:34:13.809Z,3.20
2023-01-06T08:35:13.805Z,4.20
2023-01-06T08:36:13.692Z,5.70
2023-01-06T08:37:13.692Z,8.20
2023-01-06T08:38:13.695Z,4.80
2023-01-06T08:39:13.769Z,5.50
2023-01-06T08:40:13.669Z,5.00
2023-01-06T08:41:13.654Z,1.60
2023-01-06T08:42:13.642Z,4.30
2023-01-06T08:43:13.649Z,1.90
2023-01-06T08:44:13.645Z,3.10
2023-01-06T08:45:13.705Z,2.50
2023-01-06T08:46:13.661Z,1.20
2023-01-06T08:47:13.627Z,6.10
2023-01-06T08:48:13.617Z,3.70
2023-01-06T08:49:13.613Z,3.50
2023-01-06T08:50:13.701Z,3.90
2023-01-06T08:51:13.563Z,2.20
2023-01-06T08:52:13.638Z,5.20
2023-01-06T08:53:13.655Z,3.70
2023-01-06T08:54:13.555Z,2.30
2023-01-06T08:55:13.551Z,1.70
2023-01-06T08:56:13.611Z,3.00
2023-01-06T08:57:13.544Z,3.30
2023-01-06T08:58:13.557Z,4.40
2023-01-06T08:59:13.514Z,7.80
2023-01-06T09:00:13.504Z,9.40
2023-01-06T09:01:13.668Z,7.10
2023-01-06T09:02:13.615Z,5.50
2023-01-06T09:03:13.497Z,5.80
2023-01-06T09:04:13.544Z,5.10
2023-01-06T09:05:13.511Z,5.00
2023-01-06T09:06:13.468Z,7.80
2023-01-06T09:07:13.461Z,4.70
2023-01-06T09:08:13.437Z,2.10
2023-01-06T09:09:13.556Z,2.10
2023-01-06T09:10:13.446Z,2.40
2023-01-06T09:11:14.131Z,3.00
2023-01-06T09:12:13.426Z,2.10
2023-01-06T09:13:13.480Z,2.70
2023-01-06T09:14:13.410Z,2.10
2023-01-06T09:15:13.419Z,2.20
2023-01-06T09:16:13.395Z,2.40
2023-01-06T09:17:13.388Z,2.90
2023-01-06T09:18:13.400Z,1.90
2023-01-06T09:19:13.390Z,3.80
2023-01-06T09:20:13.401Z,5.40
2023-01-06T09:21:13.383Z,2.60
2023-01-06T09:22:13.381Z,2.20
2023-01-06T09:23:13.419Z,2.80
2023-01-06T09:24:13.424Z,2.10
2023-01-06T09:25:13.347Z,2.10
2023-01-06T09:26:13.370Z,1.10
2023-01-06T09:27:13.339Z,1.30
2023-01-06T09:28:13.309Z,3.50
2023-01-06T09:29:13.302Z,1.90
2023-01-06T09:30:13.372Z,2.10
2023-01-06T09:31:13.466Z,1.20
2023-01-06T09:32:13.269Z,1.50
2023-01-06T09:33:13.311Z,2.20
2023-01-06T09:34:13.277Z,3.20
2023-01-06T09:35:13.257Z,2.50
2023-01-06T09:36:13.237Z,4.00
2023-01-06T09:37:13.224Z,2.40
2023-01-06T09:38:13.229Z,1.40
2023-01-06T09:39:13.245Z,2.40
2023-01-06T09:40:13.262Z,2.50
2023-01-06T09:41:13.210Z,1.60
2023-01-06T09:42:13.214Z,2.80
2023-01-06T09:43:13.196Z,1.40
2023-01-06T09:44:13.259Z,1.60
2023-01-06T09:45:49.141Z,2.10
2023-01-06T09:46:14.843Z,2.40
2023-01-06T09:47:45.079Z,2.30
2023-01-06T09:48:13.153Z,3.20
2023-01-06T09:49:13.844Z,3.40
2023-01-06T09:50:13.316Z,3.10
2023-01-06T09:51:13.179Z,2.00
2023-01-06T09:52:13.155Z,2.30
2023-01-06T09:53:13.133Z,1.10
2023-01-06T09:54:13.115Z,2.70
2023-01-06T09:55:13.262Z,4.60
2023-01-06T09:56:13.677Z,1.90
2023-01-06T09:57:13.142Z,1.90
2023-01-06T09:58:13.091Z,3.30
2023-01-06T09:59:13.098Z,2.00
2023-01-06T10:00:13.107Z,1.90
2023-01-06T10:01:13.083Z,1.60
2023-01-06T10:02:13.094Z,1.30
2023-01-06T10:03:13.027Z,3.30
2023-01-06T10:04:13.111Z,3.30
2023-01-06T10:05:13.069Z,2.80
2023-01-06T10:06:13.082Z,1.60
2023-01-06T10:07:13.055Z,1.40
2023-01-06T10:08:13.014Z,1.10
2023-01-06T10:09:13.145Z,3.30
2023-01-06T10:10:13.007Z,2.70
2023-01-06T10:11:13.097Z,3.10
2023-01-06T10:12:13.019Z,2.80
2023-01-06T10:13:12.977Z,1.10
2023-01-06T10:14:13.017Z,1.40
2023-01-06T10:15:12.940Z,2.10
2023-01-06T10:16:12.993Z,2.00
2023-01-06T10:17:12.985Z,1.80
2023-01-06T10:18:13.077Z,1.30
2023-01-06T10:19:12.916Z,0.90
2023-01-06T10:20:12.930Z,1.40
2023-01-06T10:21:12.945Z,1.30
2023-01-06T10:22:12.892Z,4.40
2023-01-06T10:23:12.891Z,1.30
2023-01-06T10:24:12.880Z,2.40
2023-01-06T10:25:12.896Z,2.40
2023-01-06T10:26:12.870Z,1.70
2023-01-06T10:27:12.938Z,3.60
2023-01-06T10:28:13.378Z,1.20
2023-01-06T10:29:12.841Z,0.70
2023-01-06T10:30:12.865Z,2.40
2023-01-06T10:31:12.872Z,1.10
2023-01-06T10:32:12.826Z,3.90
2023-01-06T10:33:12.784Z,0.90
2023-01-06T10:34:12.791Z,2.70
2023-01-06T10:35:12.815Z,1.10
2023-01-06T10:36:12.804Z,1.60
2023-01-06T10:37:12.935Z,1.80
2023-01-06T10:38:12.919Z,2.80
2023-01-06T10:39:12.819Z,1.80
2023-01-06T10:40:12.784Z,3.00
2023-01-06T10:41:12.733Z,4.30
2023-01-06T10:42:12.747Z,7.00
2023-01-06T10:43:13.484Z,5.10
2023-01-06T10:44:12.745Z,3.60
2023-01-06T10:45:12.708Z,5.50
2023-01-06T10:46:12.771Z,8.00
2023-01-06T10:47:12.723Z,6.70
2023-01-06T10:48:13.404Z,5.00
2023-01-06T10:49:12.684Z,3.50
2023-01-06T10:50:12.679Z,5.40
2023-01-06T10:51:12.662Z,6.00
2023-01-06T10:52:13.677Z,9.40
2023-01-06T10:53:12.670Z,9.00
2023-01-06T10:54:12.647Z,3.70
2023-01-06T10:55:12.683Z,2.50
2023-01-06T10:56:12.647Z,3.70
2023-01-06T10:57:12.665Z,5.50
2023-01-06T10:58:12.792Z,6.30
2023-01-06T10:59:12.772Z,5.70
2023-01-06T11:00:12.651Z,4.20
2023-01-06T11:01:12.727Z,5.50
2023-01-06T11:02:12.704Z,3.50
2023-01-06T11:03:32.284Z,6.40
2023-01-06T11:04:14.582Z,2.30
2023-01-06T11:05:12.561Z,6.80
2023-01-06T11:06:12.579Z,6.90
2023-01-06T11:07:12.584Z,2.40
2023-01-06T11:08:44.459Z,5.60
2023-01-06T11:09:12.582Z,7.50
2023-01-06T11:10:44.978Z,8.40
2023-01-06T11:11:26.882Z,8.90
2023-01-06T11:12:13.506Z,6.40
2023-01-06T11:13:44.894Z,8.70
2023-01-06T11:14:12.483Z,5.80
2023-01-06T11:15:12.580Z,5.70
2023-01-06T11:16:12.493Z,3.10
2023-01-06T11:17:13.335Z,3.30
2023-01-06T11:18:12.835Z,3.10
2023-01-06T11:19:12.464Z,5.30
2023-01-06T11:20:12.448Z,4.80
2023-01-06T11:21:12.471Z,5.20
2023-01-06T11:22:12.496Z,7.90
2023-01-06T11:23:12.491Z,7.30
2023-01-06T11:24:12.454Z,5.40
2023-01-06T11:25:12.451Z,2.50
2023-01-06T11:26:12.433Z,3.60
2023-01-06T11:27:12.450Z,2.90
2023-01-06T11:28:12.691Z,7.70
2023-01-06T11:29:12.383Z,1.30
2023-01-06T11:30:13.449Z,2.00
2023-01-06T11:31:12.617Z,2.30
2023-01-06T11:32:12.428Z,2.70
2023-01-06T11:33:12.348Z,1.70
2023-01-06T11:34:12.398Z,1.70
2023-01-06T11:35:12.326Z,2.60
2023-01-06T11:36:12.509Z,1.40
2023-01-06T11:37:12.394Z,1.90
2023-01-06T11:38:12.336Z,2.60
2023-01-06T11:39:12.297Z,1.90
2023-01-06T11:40:12.333Z,2.60
2023-01-06T11:41:12.293Z,2.00
2023-01-06T11:42:12.280Z,3.00
2023-01-06T11:43:12.323Z,1.70
2023-01-06T11:44:12.311Z,2.60
2023-01-06T11:45:13.294Z,1.60
2023-01-06T11:46:12.278Z,1.80
2023-01-06T11:47:12.360Z,1.60
2023-01-06T11:48:12.239Z,2.70
2023-01-06T11:49:12.212Z,2.20
2023-01-06T11:50:12.238Z,2.50
2023-01-06T11:51:12.229Z,2.40
2023-01-06T11:52:12.231Z,4.60
2023-01-06T11:53:12.201Z,1.20
2023-01-06T11:54:12.425Z,2.00
2023-01-06T11:55:13.404Z,1.70
2023-01-06T11:56:13.231Z,3.10
2023-01-06T11:57:12.226Z,2.70
2023-01-06T11:58:12.180Z,2.30
2023-01-06T11:59:12.161Z,2.70
2023-01-06T12:00:12.188Z,2.50
2023-01-06T12:01:12.181Z,2.60
2023-01-06T12:02:12.156Z,3.70
2023-01-06T12:03:12.293Z,2.60
2023-01-06T12:04:12.139Z,2.20
2023-01-06T12:05:12.157Z,2.40
2023-01-06T12:06:12.133Z,3.20
2023-01-06T12:07:12.067Z,1.60
2023-01-06T12:08:12.073Z,1.80
2023-01-06T12:09:12.135Z,2.50
2023-01-06T12:10:12.086Z,2.50
2023-01-06T12:11:12.198Z,2.70
2023-01-06T12:12:12.062Z,4.40
2023-01-06T12:13:12.220Z,1.90
2023-01-06T12:14:23.643Z,3.30
2023-01-06T12:15:14.043Z,6.30
2023-01-06T12:16:12.189Z,2.50
2023-01-06T12:17:12.231Z,3.40
2023-01-06T12:18:12.112Z,2.50
2023-01-06T12:19:12.108Z,1.30
2023-01-06T12:20:13.301Z,1.70
2023-01-06T12:21:12.986Z,3.10
2023-01-06T12:22:12.955Z,1.80
2023-01-06T12:23:11.950Z,1.50
2023-01-06T12:24:11.957Z,0.80
2023-01-06T12:25:11.946Z,1.30
2023-01-06T12:26:11.970Z,3.20
2023-01-06T12:27:11.914Z,0.70
2023-01-06T12:28:11.952Z,1.40
2023-01-06T12:29:11.923Z,1.20
2023-01-06T12:30:12.004Z,4.10
2023-01-06T12:31:11.992Z,2.80
2023-01-06T12:32:11.912Z,2.00
2023-01-06T12:33:11.890Z,2.50
2023-01-06T12:34:11.892Z,2.20
2023-01-06T12:35:11.942Z,3.40
2023-01-06T12:36:11.865Z,2.20
2023-01-06T12:37:11.866Z,5.00
2023-01-06T12:38:11.912Z,2.40
2023-01-06T12:39:11.864Z,4.70
2023-01-06T12:40:11.924Z,3.10
2023-01-06T12:41:11.805Z,4.10
2023-01-06T12:42:12.650Z,4.90
2023-01-06T12:43:11.794Z,2.20
2023-01-06T12:44:11.821Z,1.20
2023-01-06T12:45:11.796Z,1.50
2023-01-06T12:46:11.818Z,2.00
2023-01-06T12:47:11.761Z,1.10
2023-01-06T12:48:11.774Z,2.40
2023-01-06T12:49:11.786Z,3.40
2023-01-06T12:50:11.810Z,3.50
2023-01-06T12:51:11.829Z,2.20
2023-01-06T12:52:11.727Z,2.40
2023-01-06T12:53:19.733Z,4.40
2023-01-06T12:54:13.721Z,2.40
2023-01-06T12:55:11.732Z,1.90
2023-01-06T12:56:11.814Z,1.90
2023-01-06T12:57:11.700Z,1.20
2023-01-06T12:58:44.647Z,1.80
2023-01-06T12:59:11.681Z,2.00
2023-01-06T13:00:11.705Z,2.20
2023-01-06T13:01:11.902Z,2.90
2023-01-06T13:02:11.790Z,2.60
2023-01-06T13:03:11.722Z,2.00
2023-01-06T13:04:11.685Z,2.80
2023-01-06T13:05:11.700Z,4.00
2023-01-06T13:06:11.626Z,8.20
2023-01-06T13:07:12.340Z,12.60
2023-01-06T13:08:12.380Z,8.30
2023-01-06T13:09:11.657Z,12.40
2023-01-06T13:10:11.666Z,12.50
2023-01-06T13:11:11.649Z,11.30
2023-01-06T13:12:11.586Z,12.50
2023-01-06T13:13:11.602Z,10.80
2023-01-06T13:14:11.604Z,4.40
2023-01-06T13:15:12.488Z,4.90
2023-01-06T13:16:12.552Z,4.00
2023-01-06T13:17:11.563Z,14.20
2023-01-06T13:18:12.361Z,4.10
2023-01-06T13:19:11.544Z,6.50
2023-01-06T13:20:11.531Z,7.20
2023-01-06T13:21:12.037Z,4.60
2023-01-06T13:22:11.494Z,5.10
2023-01-06T13:23:11.640Z,3.60
2023-01-06T13:24:11.545Z,7.70
2023-01-06T13:25:11.486Z,3.50